createdAt,value
2022-12-02T00:01:10.775Z,102197.00
2022-12-02T00:03:17.041Z,102190.88
2022-12-02T00:05:30.882Z,102187.38
2022-12-02T00:07:33.939Z,102185.56
2022-12-02T00:09:36.565Z,102178.63
2022-12-02T00:11:40.485Z,102173.31
2022-12-02T00:13:43.455Z,102192.66
2022-12-02T00:15:47.109Z,102183.00
2022-12-02T00:17:48.677Z,102176.84
2022-12-02T00:19:50.504Z,102175.09
2022-12-02T00:21:52.258Z,102175.97
2022-12-02T00:23:55.299Z,102184.69
2022-12-02T00:25:57.156Z,102180.31
2022-12-02T00:27:58.619Z,102182.09
2022-12-02T00:30:00.191Z,102175.94
2022-12-02T00:32:01.864Z,102179.44
2022-12-02T00:34:04.396Z,102182.06
2022-12-02T00:36:07.095Z,102171.53
2022-12-02T00:38:08.698Z,102172.34
2022-12-02T00:40:12.627Z,102175.91
2022-12-02T00:42:14.177Z,102162.75
2022-12-02T00:44:16.104Z,102168.84
2022-12-02T00:46:17.702Z,102153.94
2022-12-02T00:48:19.341Z,102161.00
2022-12-02T00:50:21.067Z,102158.41
2022-12-02T00:52:22.679Z,102159.28
2022-12-02T00:54:24.400Z,102154.03
2022-12-02T00:56:27.493Z,102157.50
2022-12-02T00:58:29.309Z,102146.06
2022-12-02T01:00:30.677Z,102160.94
2022-12-02T01:02:32.331Z,102115.34
2022-12-02T01:04:33.973Z,102141.66
2022-12-02T01:06:35.512Z,102114.50
2022-12-02T01:08:37.118Z,102141.72
2022-12-02T01:10:38.779Z,102147.00
2022-12-02T01:12:41.793Z,102152.19
2022-12-02T01:14:43.431Z,102150.44
2022-12-02T01:16:45.175Z,102147.00
2022-12-02T01:18:46.666Z,102157.53
2022-12-02T01:20:48.262Z,102147.00
2022-12-02T01:22:49.835Z,102148.75
2022-12-02T01:24:51.547Z,102155.78
2022-12-02T01:26:53.079Z,102148.78
2022-12-02T01:28:56.044Z,102147.03
2022-12-02T01:30:57.645Z,102148.78
2022-12-02T01:32:59.202Z,102147.03
2022-12-02T01:35:00.741Z,102151.41
2022-12-02T01:37:02.300Z,102152.25
2022-12-02T01:39:04.351Z,102152.25
2022-12-02T01:41:06.960Z,102152.25
2022-12-02T01:43:08.911Z,102149.56
2022-12-02T01:45:12.719Z,102152.28
2022-12-02T01:47:14.577Z,102129.44
2022-12-02T01:49:16.370Z,102143.50
2022-12-02T01:51:17.876Z,102158.41
2022-12-02T01:53:19.495Z,102150.53
2022-12-02T01:55:23.736Z,102147.91
2022-12-02T01:57:30.861Z,102152.28
2022-12-02T01:59:32.492Z,102146.16
2022-12-02T02:01:35.652Z,102140.00
2022-12-02T02:03:37.342Z,102142.63
2022-12-02T02:05:39.036Z,102153.16
2022-12-02T02:07:42.658Z,102144.41
2022-12-02T02:09:44.478Z,102140.91
2022-12-02T02:11:45.861Z,102143.53
2022-12-02T02:13:47.854Z,102142.66
2022-12-02T02:15:49.635Z,102145.28
2022-12-02T02:17:54.348Z,102143.50
2022-12-02T02:19:56.495Z,102139.13
2022-12-02T02:21:59.681Z,102139.13
2022-12-02T02:24:03.015Z,102136.50
2022-12-02T02:26:04.889Z,102139.13
2022-12-02T02:28:07.838Z,102135.63
2022-12-02T02:30:10.350Z,102135.63
2022-12-02T02:32:12.501Z,102129.50
2022-12-02T02:34:14.486Z,102127.72
2022-12-02T02:36:16.589Z,102138.25
2022-12-02T02:38:22.351Z,102130.38
2022-12-02T02:40:27.725Z,102151.41
2022-12-02T02:42:29.710Z,102139.13
2022-12-02T02:44:31.665Z,102129.50
2022-12-02T02:46:33.707Z,102133.00
2022-12-02T02:48:36.421Z,102141.72
2022-12-02T02:50:40.633Z,102143.50
2022-12-02T02:52:42.706Z,102118.88
2022-12-02T02:54:44.453Z,102122.41
2022-12-02T02:56:47.988Z,102136.44
2022-12-02T02:58:50.059Z,102135.53
2022-12-02T03:00:54.387Z,102129.41
2022-12-02T03:02:56.694Z,102116.28
2022-12-02T03:04:58.874Z,102129.41
2022-12-02T03:07:00.787Z,102103.06
2022-12-02T03:09:04.427Z,102131.16
2022-12-02T03:11:07.122Z,102126.84
2022-12-02T03:13:10.464Z,102101.31
2022-12-02T03:15:12.452Z,102118.03
2022-12-02T03:17:14.666Z,102129.47
2022-12-02T03:19:17.469Z,102119.84
2022-12-02T03:21:20.859Z,102119.84
2022-12-02T03:23:22.605Z,102120.72
2022-12-02T03:25:24.278Z,102118.09
2022-12-02T03:27:26.956Z,102129.50
2022-12-02T03:29:30.651Z,102124.22
2022-12-02T03:31:36.707Z,102097.88
2022-12-02T03:33:38.843Z,102104.00
2022-12-02T03:35:40.611Z,102123.34
2022-12-02T03:37:42.365Z,102120.72
2022-12-02T03:39:44.158Z,102104.94
2022-12-02T03:41:46.588Z,102124.22
2022-12-02T03:43:48.249Z,102114.56
2022-12-02T03:45:51.477Z,102106.69
2022-12-02T03:47:53.324Z,102096.13
2022-12-02T03:49:55.105Z,102101.44
2022-12-02T03:51:56.898Z,102104.94
2022-12-02T03:54:00.399Z,102103.22
2022-12-02T03:56:02.791Z,102099.69
2022-12-02T03:58:04.731Z,102103.22
2022-12-02T04:00:14.071Z,102102.34
2022-12-02T04:02:18.973Z,102107.59
2022-12-02T04:04:20.782Z,102108.47
2022-12-02T04:06:22.453Z,102102.34
2022-12-02T04:08:24.158Z,102094.44
2022-12-02T04:10:25.818Z,102090.06
2022-12-02T04:12:27.429Z,102096.19
2022-12-02T04:14:29.079Z,102087.44
2022-12-02T04:16:30.756Z,102096.19
2022-12-02T04:18:33.927Z,102097.06
2022-12-02T04:20:35.535Z,102068.09
2022-12-02T04:22:37.202Z,102097.94
2022-12-02T04:24:38.882Z,102101.44
2022-12-02T04:26:43.593Z,102102.34
2022-12-02T04:28:45.987Z,102102.34
2022-12-02T04:30:47.488Z,102098.84
2022-12-02T04:32:49.167Z,102099.72
2022-12-02T04:34:52.290Z,102093.56
2022-12-02T04:36:54.144Z,102097.94
2022-12-02T04:38:55.703Z,102100.59
2022-12-02T04:40:57.277Z,102094.44
2022-12-02T04:42:58.941Z,102100.59
2022-12-02T04:45:00.863Z,102097.97
2022-12-02T04:47:02.402Z,102097.06
2022-12-02T04:49:04.085Z,102100.59
2022-12-02T04:51:07.101Z,102098.81
2022-12-02T04:53:08.617Z,102099.72
2022-12-02T04:55:10.325Z,102101.47
2022-12-02T04:57:11.895Z,102097.97
2022-12-02T04:59:13.438Z,102090.94
2022-12-02T05:01:15.340Z,102092.69
2022-12-02T05:03:16.975Z,102083.94
2022-12-02T05:05:18.602Z,102090.94
2022-12-02T05:07:21.704Z,102075.09
2022-12-02T05:09:23.336Z,102079.50
2022-12-02T05:11:24.909Z,102092.59
2022-12-02T05:13:26.514Z,102089.97
2022-12-02T05:15:28.061Z,102082.06
2022-12-02T05:17:29.589Z,102084.66
2022-12-02T05:19:31.166Z,102093.41
2022-12-02T05:21:32.746Z,102085.56
2022-12-02T05:23:35.685Z,102095.19
2022-12-02T05:25:37.259Z,102094.28
2022-12-02T05:27:38.944Z,102081.16
2022-12-02T05:29:40.521Z,102089.03
2022-12-02T05:31:42.208Z,102078.56
2022-12-02T05:33:43.829Z,102085.53
2022-12-02T05:35:45.495Z,102082.09
2022-12-02T05:37:47.094Z,102084.72
2022-12-02T05:39:50.147Z,102082.09
2022-12-02T05:41:52.124Z,102090.94
2022-12-02T05:43:54.382Z,102076.03
2022-12-02T05:45:59.120Z,102080.41
2022-12-02T05:48:00.736Z,102076.91
2022-12-02T05:50:11.163Z,102076.91
2022-12-02T05:52:22.236Z,102069.03
2022-12-02T05:54:24.780Z,102077.78
2022-12-02T05:56:28.648Z,102071.66
2022-12-02T05:58:30.354Z,102069.91
2022-12-02T06:00:31.899Z,102072.53
2022-12-02T06:02:40.879Z,102069.03
2022-12-02T06:04:42.904Z,102075.16
2022-12-02T06:06:44.620Z,102075.16
2022-12-02T06:08:49.224Z,102070.78
2022-12-02T06:10:53.949Z,102070.78
2022-12-02T06:12:59.818Z,102055.81
2022-12-02T06:15:01.422Z,102060.25
2022-12-02T06:17:13.454Z,102082.16
2022-12-02T06:19:22.452Z,102081.28
2022-12-02T06:21:24.190Z,102083.03
2022-12-02T06:23:27.822Z,102086.56
2022-12-02T06:25:32.465Z,102085.66
2022-12-02T06:27:34.434Z,102083.91
2022-12-02T06:29:37.709Z,102094.44
2022-12-02T06:31:41.594Z,102097.06
2022-12-02T06:33:44.988Z,102083.03
2022-12-02T06:35:49.597Z,102094.44
2022-12-02T06:37:53.477Z,102097.94
2022-12-02T06:42:22.257Z,102092.69
2022-12-02T06:44:25.861Z,102104.06
2022-12-02T06:46:28.859Z,102097.94
2022-12-02T06:48:32.710Z,102108.47
2022-12-02T06:50:42.090Z,102100.56
2022-12-02T06:52:46.135Z,102100.56
2022-12-02T06:54:48.100Z,102108.44
2022-12-02T06:56:51.361Z,102096.13
2022-12-02T06:59:00.075Z,102085.59
2022-12-02T07:01:28.751Z,102101.44
2022-12-02T07:03:34.330Z,102095.28
2022-12-02T07:05:35.901Z,102091.78
2022-12-02T07:07:37.671Z,102078.59
2022-12-02T07:09:41.966Z,102097.94
2022-12-02T07:11:46.610Z,102088.25
2022-12-02T07:13:49.024Z,102095.25
2022-12-02T07:15:50.863Z,102094.44
2022-12-02T07:17:52.572Z,102088.28
2022-12-02T07:20:13.205Z,102087.38
2022-12-02T07:22:16.650Z,102095.31
2022-12-02T07:24:20.941Z,102094.44
2022-12-02T07:26:22.547Z,102086.56
2022-12-02T07:28:27.858Z,102055.84
2022-12-02T07:30:31.651Z,102101.47
2022-12-02T07:32:33.300Z,102094.44
2022-12-02T07:34:34.844Z,102092.69
2022-12-02T07:36:38.026Z,102093.56
2022-12-02T07:41:01.116Z,102093.56
2022-12-02T07:43:02.794Z,102106.69
2022-12-02T07:45:05.054Z,102104.09
2022-12-02T07:47:06.829Z,102110.22
2022-12-02T07:49:08.330Z,102110.22
2022-12-02T07:51:10.403Z,102099.69
2022-12-02T07:53:13.290Z,102100.56
2022-12-02T07:55:15.024Z,102095.28
2022-12-02T07:57:16.526Z,102097.06
2022-12-02T07:59:18.112Z,102110.19
2022-12-02T08:01:20.342Z,102108.41
2022-12-02T08:03:21.970Z,102114.53
2022-12-02T08:05:24.303Z,102106.63
2022-12-02T08:07:25.905Z,102103.13
2022-12-02T08:09:28.914Z,102102.22
2022-12-02T08:11:30.471Z,102107.44
2022-12-02T08:13:32.108Z,102104.78
2022-12-02T08:15:33.674Z,102106.50
2022-12-02T08:17:35.645Z,102107.38
2022-12-02T08:19:37.206Z,102106.56
2022-12-02T08:21:38.931Z,102109.19
2022-12-02T08:23:40.492Z,102099.56
2022-12-02T08:25:43.425Z,102070.66
2022-12-02T08:27:45.764Z,102105.72
2022-12-02T08:29:47.926Z,102110.97
2022-12-02T08:31:49.570Z,102103.97
2022-12-02T08:33:51.507Z,102096.06
2022-12-02T08:35:53.105Z,102108.38
2022-12-02T08:37:54.854Z,102105.69
2022-12-02T08:39:56.447Z,102106.63
2022-12-02T08:41:59.341Z,102113.63
2022-12-02T08:44:01.017Z,102104.84
2022-12-02T08:46:02.745Z,102111.03
2022-12-02T08:48:04.541Z,102111.84
2022-12-02T08:50:07.291Z,102109.22
2022-12-02T08:52:09.061Z,102096.06
2022-12-02T08:54:10.436Z,102106.59
2022-12-02T08:56:12.109Z,102112.72
2022-12-02T08:58:15.250Z,102109.19
2022-12-02T09:00:17.084Z,102103.06
2022-12-02T09:02:18.537Z,102104.81
2022-12-02T09:04:37.195Z,102103.03
2022-12-02T09:06:39.194Z,102095.16
2022-12-02T09:08:40.893Z,102117.06
2022-12-02T09:10:42.600Z,102109.16
2022-12-02T09:12:44.259Z,102123.25
2022-12-02T09:14:47.386Z,102113.63
2022-12-02T09:16:48.987Z,102096.97
2022-12-02T09:18:50.537Z,102096.09
2022-12-02T09:20:52.079Z,102105.72
2022-12-02T09:22:53.632Z,102100.47
2022-12-02T09:24:55.307Z,102104.94
2022-12-02T09:26:56.947Z,102099.69
2022-12-02T09:28:58.550Z,102103.13
2022-12-02T09:31:01.564Z,102090.03
2022-12-02T09:33:03.633Z,102095.28
2022-12-02T09:35:06.216Z,102109.31
2022-12-02T09:37:09.554Z,102107.59
2022-12-02T09:39:11.369Z,102089.19
2022-12-02T09:41:13.232Z,102102.34
2022-12-02T09:43:14.622Z,102108.47
2022-12-02T09:45:16.532Z,102101.38
2022-12-02T09:47:20.776Z,102082.09
2022-12-02T09:49:22.358Z,102057.56
2022-12-02T09:51:24.500Z,102075.09
2022-12-02T09:53:32.994Z,102087.38
2022-12-02T09:55:36.838Z,102092.63
2022-12-02T09:57:40.662Z,102094.38
2022-12-02T09:59:43.150Z,102091.75
2022-12-02T10:01:47.093Z,102089.09
2022-12-02T10:03:51.205Z,102085.59
2022-12-02T10:05:53.306Z,102082.09
2022-12-02T10:07:57.456Z,102068.97
2022-12-02T10:10:00.653Z,102066.34
2022-12-02T10:12:02.326Z,102072.53
2022-12-02T10:14:04.375Z,102065.50
2022-12-02T10:16:11.764Z,102061.13
2022-12-02T10:18:17.443Z,102065.47
2022-12-02T10:20:23.052Z,102064.63
2022-12-02T10:22:24.608Z,102070.75
2022-12-02T10:24:35.123Z,102062.84
2022-12-02T10:26:48.149Z,102066.31
2022-12-02T10:29:01.454Z,102068.06
2022-12-02T10:31:09.799Z,102066.31
2022-12-02T10:33:13.086Z,102061.94
2022-12-02T10:35:14.719Z,102048.81
2022-12-02T10:37:24.781Z,102060.25
2022-12-02T10:39:34.139Z,102058.44
2022-12-02T10:41:37.605Z,102044.44
2022-12-02T10:43:39.318Z,102050.56
2022-12-02T10:45:41.191Z,102052.31
2022-12-02T10:47:43.132Z,102049.66
2022-12-02T10:49:48.848Z,102049.66
2022-12-02T10:51:50.457Z,102057.56
2022-12-02T10:53:53.662Z,102044.44
2022-12-02T10:55:55.810Z,102044.44
2022-12-02T10:57:58.461Z,102038.34
2022-12-02T11:00:04.322Z,102034.81
2022-12-02T11:02:24.540Z,102049.75
2022-12-02T11:04:28.416Z,102039.22
2022-12-02T11:06:31.278Z,102043.56
2022-12-02T11:08:33.081Z,102040.09
2022-12-02T11:10:36.982Z,102046.19
2022-12-02T11:13:03.895Z,102050.56
2022-12-02T11:15:33.145Z,102047.06
2022-12-02T11:17:58.656Z,102041.75
2022-12-02T11:20:29.900Z,102037.41
2022-12-02T11:22:47.783Z,102039.16
2022-12-02T11:24:49.614Z,102031.28
2022-12-02T11:27:16.566Z,102030.41
2022-12-02T11:29:19.947Z,102021.66
2022-12-02T11:31:26.328Z,102022.53
2022-12-02T11:34:01.120Z,102025.16
2022-12-02T11:36:14.140Z,102025.16
2022-12-02T11:38:26.729Z,102005.91
2022-12-02T11:40:59.036Z,102022.56
2022-12-02T11:43:33.982Z,102026.91
2022-12-02T11:48:16.006Z,102010.28
2022-12-02T11:50:24.963Z,102008.53
2022-12-02T11:52:26.601Z,102006.78
2022-12-02T11:54:29.158Z,102009.41
2022-12-02T11:56:37.164Z,102008.53
2022-12-02T11:58:38.850Z,102020.78
2022-12-02T12:00:40.490Z,102014.63
2022-12-02T12:02:42.187Z,102020.75
2022-12-02T12:04:46.091Z,102006.72
2022-12-02T12:06:54.961Z,102017.25
2022-12-02T12:08:57.379Z,101997.97
2022-12-02T12:11:17.402Z,102005.88
2022-12-02T12:13:21.282Z,102015.50
2022-12-02T12:15:59.100Z,102013.72
2022-12-02T12:18:00.698Z,102012.81
2022-12-02T12:20:04.310Z,102023.31
2022-12-02T12:22:25.273Z,102009.31
2022-12-02T12:24:36.326Z,102007.53
2022-12-02T12:26:37.976Z,102014.53
2022-12-02T12:28:39.577Z,102026.78
2022-12-02T12:30:41.338Z,102024.16
2022-12-02T12:32:42.784Z,102020.69
2022-12-02T12:34:44.545Z,102017.22
2022-12-02T12:36:47.828Z,102010.25
2022-12-02T12:38:49.521Z,102012.88
2022-12-02T12:40:51.119Z,102005.00
2022-12-02T12:42:52.697Z,102008.50
2022-12-02T12:44:54.553Z,102002.34
2022-12-02T12:46:56.287Z,102004.97
2022-12-02T12:48:58.029Z,102013.75
2022-12-02T12:50:59.737Z,102005.84
2022-12-02T12:53:02.767Z,102004.97
2022-12-02T12:55:04.929Z,102007.59
2022-12-02T12:57:06.520Z,102011.94
2022-12-02T12:59:08.102Z,102011.09
2022-12-02T13:01:10.012Z,102012.84
2022-12-02T13:03:11.663Z,101999.72
2022-12-02T13:05:13.541Z,102013.72
2022-12-02T13:07:14.973Z,102000.59
2022-12-02T13:09:20.843Z,102010.22
2022-12-02T13:11:22.514Z,102016.34
2022-12-02T13:13:24.223Z,102002.34
2022-12-02T13:15:26.201Z,102000.56
2022-12-02T13:17:28.159Z,102011.97
2022-12-02T13:19:30.215Z,102011.06
2022-12-02T13:21:32.087Z,102015.44
2022-12-02T13:23:33.917Z,102010.16
2022-12-02T13:25:37.109Z,102001.44
2022-12-02T13:27:39.399Z,102011.06
2022-12-02T13:29:41.132Z,102010.16
2022-12-02T13:31:43.161Z,101987.41
2022-12-02T13:33:45.164Z,102005.78
2022-12-02T13:35:46.993Z,102015.41
2022-12-02T13:37:48.629Z,102017.16
2022-12-02T13:39:50.858Z,102016.22
2022-12-02T13:41:54.306Z,102001.34
2022-12-02T13:43:56.157Z,102019.78
2022-12-02T13:45:57.878Z,102011.81
2022-12-02T13:47:59.500Z,102021.41
2022-12-02T13:50:01.446Z,102009.19
2022-12-02T13:52:03.270Z,102011.81
2022-12-02T13:54:04.705Z,102009.19
2022-12-02T13:56:07.175Z,102010.16
2022-12-02T13:58:10.263Z,102025.03
2022-12-02T14:00:13.321Z,102024.06
2022-12-02T14:02:15.001Z,102021.41
2022-12-02T14:04:16.784Z,102018.81
2022-12-02T14:06:18.321Z,102031.06
2022-12-02T14:08:20.194Z,102026.66
2022-12-02T14:10:21.875Z,102036.28
2022-12-02T14:12:23.471Z,102023.97
2022-12-02T14:14:26.411Z,102017.03
2022-12-02T14:16:28.271Z,102027.59
2022-12-02T14:18:29.687Z,102029.34
2022-12-02T14:20:31.307Z,102033.66
2022-12-02T14:22:32.965Z,102033.69
2022-12-02T14:24:34.689Z,102036.28
2022-12-02T14:26:36.835Z,102038.00
2022-12-02T14:28:38.516Z,102043.19
2022-12-02T14:30:41.607Z,102039.69
2022-12-02T14:32:43.351Z,102054.59
2022-12-02T14:34:45.114Z,102057.19
2022-12-02T14:36:46.854Z,102049.34
2022-12-02T14:38:48.659Z,102061.56
2022-12-02T14:40:50.251Z,102062.38
2022-12-02T14:42:51.913Z,102063.28
2022-12-02T14:44:53.816Z,102056.19
2022-12-02T14:46:57.197Z,102050.00
2022-12-02T14:49:23.233Z,102066.59
2022-12-02T14:51:20.294Z,102058.72
2022-12-02T14:53:22.206Z,102070.09
2022-12-02T14:55:23.797Z,102064.00
2022-12-02T14:57:25.370Z,102058.84
2022-12-02T14:59:27.083Z,102054.50
2022-12-02T15:01:28.776Z,102061.50
2022-12-02T15:03:31.840Z,102058.78
2022-12-02T15:05:33.449Z,102065.81
2022-12-02T15:07:35.178Z,102056.28
2022-12-02T15:09:36.821Z,102065.94
2022-12-02T15:11:38.441Z,102059.81
2022-12-02T15:13:39.992Z,102054.66
2022-12-02T15:15:41.736Z,102059.88
2022-12-02T15:17:43.350Z,102066.00
2022-12-02T15:19:46.373Z,102053.72
2022-12-02T15:21:48.068Z,102058.09
2022-12-02T15:23:49.608Z,102052.69
2022-12-02T15:25:51.301Z,102055.44
2022-12-02T15:27:52.842Z,102051.94
2022-12-02T15:29:54.623Z,102066.78
2022-12-02T15:31:56.078Z,102065.00
2022-12-02T15:33:57.695Z,102059.69
2022-12-02T15:36:01.001Z,102056.09
2022-12-02T15:38:02.770Z,102062.09
2022-12-02T15:40:05.831Z,102044.50
2022-12-02T15:42:07.411Z,102061.09
2022-12-02T15:44:09.274Z,102047.03
2022-12-02T15:46:10.815Z,102063.75
2022-12-02T15:48:12.483Z,102040.09
2022-12-02T15:50:14.047Z,102052.47
2022-12-02T15:52:17.216Z,102048.22
2022-12-02T15:54:19.180Z,102053.38
2022-12-02T15:56:20.743Z,102034.94
2022-12-02T15:58:22.289Z,102057.69
2022-12-02T16:00:24.074Z,102059.50
2022-12-02T16:02:25.695Z,102061.13
2022-12-02T16:04:27.343Z,102061.13
2022-12-02T16:06:28.969Z,102060.25
2022-12-02T16:08:31.865Z,102059.34
2022-12-02T16:10:33.579Z,102041.00
2022-12-02T16:12:35.297Z,102055.94
2022-12-02T16:14:37.112Z,102061.19
2022-12-02T16:16:38.777Z,102066.50
2022-12-02T16:18:40.788Z,102059.41
2022-12-02T16:20:42.488Z,102058.47
2022-12-02T16:22:44.296Z,102062.00
2022-12-02T16:24:47.589Z,102063.75
2022-12-02T16:26:55.050Z,102056.78
2022-12-02T16:28:57.221Z,102046.25
2022-12-02T16:30:59.067Z,102064.69
2022-12-02T16:33:00.497Z,102063.66
2022-12-02T16:35:02.414Z,102063.63
2022-12-02T16:37:03.977Z,102066.13
2022-12-02T16:39:05.910Z,102065.22
2022-12-02T16:41:09.079Z,102061.72
2022-12-02T16:43:10.765Z,102071.34
2022-12-02T16:45:12.825Z,102074.81
2022-12-02T16:47:18.127Z,102066.13
2022-12-02T16:49:20.158Z,102075.84
2022-12-02T16:51:21.977Z,102092.44
2022-12-02T16:53:23.671Z,102091.63
2022-12-02T16:55:25.920Z,102085.38
2022-12-02T16:57:28.828Z,102090.59
2022-12-02T16:59:30.406Z,102093.25
2022-12-02T17:01:32.092Z,102089.72
2022-12-02T17:03:33.676Z,102093.25
2022-12-02T17:05:35.179Z,102081.91
2022-12-02T17:07:36.759Z,102093.25
2022-12-02T17:09:38.274Z,102070.34
2022-12-02T17:11:39.828Z,102091.34
2022-12-02T17:13:42.768Z,102077.28
2022-12-02T17:15:44.419Z,102092.25
2022-12-02T17:17:46.984Z,102086.97
2022-12-02T17:19:48.922Z,102084.28
2022-12-02T17:21:50.521Z,102091.38
2022-12-02T17:23:52.441Z,102089.72
2022-12-02T17:25:54.023Z,102088.84
2022-12-02T17:27:55.716Z,102092.22
2022-12-02T17:29:58.733Z,102095.00
2022-12-02T17:32:00.745Z,102091.53
2022-12-02T17:34:02.412Z,102101.16
2022-12-02T17:36:05.311Z,102103.81
2022-12-02T17:38:07.082Z,102111.53
2022-12-02T17:40:09.751Z,102114.00
2022-12-02T17:42:11.278Z,102112.25
2022-12-02T17:44:16.627Z,102115.97
2022-12-02T17:46:21.696Z,102088.88
2022-12-02T17:48:23.301Z,102115.19
2022-12-02T17:50:24.885Z,102109.13
2022-12-02T17:52:26.462Z,102107.38
2022-12-02T17:54:28.019Z,102114.41
2022-12-02T17:56:29.744Z,102114.41
2022-12-02T17:58:31.397Z,102117.13
2022-12-02T18:00:33.066Z,102109.16
2022-12-02T18:02:36.124Z,102119.44
2022-12-02T18:04:37.738Z,102110.78
2022-12-02T18:06:39.258Z,102113.47
2022-12-02T18:08:40.911Z,102128.09
2022-12-02T18:10:42.587Z,102120.19
2022-12-02T18:12:44.156Z,102120.25
2022-12-02T18:14:45.837Z,102117.72
2022-12-02T18:16:47.560Z,102111.56
2022-12-02T18:18:50.484Z,102115.91
2022-12-02T18:20:52.102Z,102117.47
2022-12-02T18:22:53.750Z,102103.28
2022-12-02T18:24:55.379Z,102115.72
2022-12-02T18:26:56.926Z,102107.03
2022-12-02T18:28:58.809Z,102112.25
2022-12-02T18:31:00.166Z,102105.94
2022-12-02T18:33:01.736Z,102113.78
2022-12-02T18:35:05.795Z,102102.38
2022-12-02T18:37:07.342Z,102102.41
2022-12-02T18:39:08.985Z,102105.94
2022-12-02T18:41:10.556Z,102100.00
2022-12-02T18:43:12.231Z,102098.28
2022-12-02T18:45:14.228Z,102092.16
2022-12-02T18:47:15.774Z,102081.72
2022-12-02T18:49:17.326Z,102099.94
2022-12-02T18:51:20.251Z,102101.72
2022-12-02T18:53:21.812Z,102107.56
2022-12-02T18:55:23.364Z,102113.72
2022-12-02T18:57:25.085Z,102120.47
2022-12-02T18:59:26.763Z,102099.66
2022-12-02T19:01:33.836Z,102101.31
2022-12-02T19:03:36.047Z,102089.97
2022-12-02T19:05:37.651Z,102104.97
2022-12-02T19:07:40.562Z,102109.28
2022-12-02T19:09:42.117Z,102106.59
2022-12-02T19:11:43.874Z,102116.19
2022-12-02T19:13:45.521Z,102116.28
2022-12-02T19:15:47.214Z,102109.28
2022-12-02T19:17:48.745Z,102116.19
2022-12-02T19:19:50.266Z,102114.50
2022-12-02T19:21:51.913Z,102121.41
2022-12-02T19:23:54.996Z,102118.78
2022-12-02T19:25:56.800Z,102118.75
2022-12-02T19:27:59.020Z,102113.44
2022-12-02T19:30:00.767Z,102121.44
2022-12-02T19:32:02.312Z,102122.41
2022-12-02T19:34:03.931Z,102112.84
2022-12-02T19:36:06.163Z,102120.72
2022-12-02T19:38:13.455Z,102121.69
2022-12-02T19:40:18.811Z,102106.63
2022-12-02T19:42:20.725Z,102119.75
2022-12-02T19:44:22.347Z,102122.28
2022-12-02T19:46:24.295Z,102119.69
2022-12-02T19:48:26.291Z,102118.81
2022-12-02T19:50:27.878Z,102122.31
2022-12-02T19:52:29.833Z,102117.03
2022-12-02T19:54:31.943Z,102119.72
2022-12-02T19:56:35.112Z,102120.47
2022-12-02T19:58:37.105Z,102117.81
2022-12-02T20:00:39.235Z,102125.69
2022-12-02T20:02:41.956Z,102125.88
2022-12-02T20:04:43.896Z,102121.31
2022-12-02T20:06:45.702Z,102123.09
2022-12-02T20:08:47.594Z,102122.22
2022-12-02T20:10:49.231Z,102129.34
2022-12-02T20:12:52.551Z,102122.97
2022-12-02T20:14:54.713Z,102124.78
2022-12-02T20:16:56.895Z,102124.72
2022-12-02T20:18:58.393Z,102128.06
2022-12-02T20:21:00.322Z,102120.25
2022-12-02T20:23:02.237Z,102128.34
2022-12-02T20:25:08.771Z,102120.53
2022-12-02T20:27:10.905Z,102125.00
2022-12-02T20:29:14.501Z,102124.06
2022-12-02T20:31:16.331Z,102123.06
2022-12-02T20:33:18.006Z,102121.47
2022-12-02T20:35:20.117Z,102121.50
2022-12-02T20:37:22.069Z,102122.44
2022-12-02T20:39:24.144Z,102121.66
2022-12-02T20:41:25.841Z,102113.84
2022-12-02T20:43:27.480Z,102109.56
2022-12-02T20:45:30.448Z,102119.91
2022-12-02T20:47:32.003Z,102111.28
2022-12-02T20:49:36.353Z,102112.91
2022-12-02T20:51:37.924Z,102113.69
2022-12-02T20:53:39.528Z,102111.03
2022-12-02T20:55:41.173Z,102098.00
2022-12-02T20:57:42.766Z,102103.28
2022-12-02T20:59:45.148Z,102099.84
2022-12-02T21:01:48.279Z,102101.59
2022-12-02T21:03:50.008Z,102113.72
2022-12-02T21:05:51.739Z,102108.31
2022-12-02T21:07:53.367Z,102099.47
2022-12-02T21:09:55.035Z,102103.97
2022-12-02T21:11:57.009Z,102107.38
2022-12-02T21:13:58.547Z,102104.81
2022-12-02T21:16:00.317Z,102114.44
2022-12-02T21:18:03.479Z,102107.34
2022-12-02T21:20:06.248Z,102109.84
2022-12-02T21:22:07.905Z,102118.50
2022-12-02T21:24:09.526Z,102111.75
2022-12-02T21:26:13.283Z,102113.44
2022-12-02T21:28:14.812Z,102112.53
2022-12-02T21:30:16.722Z,102116.03
2022-12-02T21:32:18.076Z,102119.66
2022-12-02T21:34:21.000Z,102117.16
2022-12-02T21:36:22.905Z,102121.47
2022-12-02T21:38:24.310Z,102126.66
2022-12-02T21:40:25.957Z,102123.13
2022-12-02T21:42:27.536Z,102124.84
2022-12-02T21:44:29.073Z,102117.91
2022-12-02T21:46:30.660Z,102122.22
2022-12-02T21:48:32.277Z,102126.56
2022-12-02T21:50:35.224Z,102128.22
2022-12-02T21:52:36.810Z,102115.84
2022-12-02T21:54:38.438Z,102120.94
2022-12-02T21:56:40.002Z,102116.75
2022-12-02T21:58:41.620Z,102116.81
2022-12-02T22:00:43.270Z,102112.63
2022-12-02T22:02:44.924Z,102127.44
2022-12-02T22:04:46.529Z,102117.81
2022-12-02T22:06:49.610Z,102113.38
2022-12-02T22:08:51.299Z,102113.47
2022-12-02T22:10:52.968Z,102115.03
2022-12-02T22:12:54.721Z,102116.91
2022-12-02T22:14:56.315Z,102118.47
2022-12-02T22:16:57.990Z,102113.94
2022-12-02T22:18:59.677Z,102121.91
2022-12-02T22:21:01.219Z,102113.22
2022-12-02T22:23:04.130Z,102112.53
2022-12-02T22:25:07.145Z,102122.13
2022-12-02T22:27:08.677Z,102112.59
2022-12-02T22:29:10.233Z,102108.97
2022-12-02T22:31:11.839Z,102109.81
2022-12-02T22:33:13.461Z,102113.47
2022-12-02T22:35:15.279Z,102105.69
2022-12-02T22:37:16.876Z,102107.44
2022-12-02T22:39:25.860Z,102108.41
2022-12-02T22:41:27.946Z,102115.25
2022-12-02T22:43:29.542Z,102103.69
2022-12-02T22:45:31.132Z,102100.31
2022-12-02T22:47:32.697Z,102102.13
2022-12-02T22:49:34.324Z,102100.59
2022-12-02T22:51:35.935Z,102108.31
2022-12-02T22:53:37.571Z,102109.94
2022-12-02T22:55:40.549Z,102106.34
2022-12-02T22:57:42.061Z,102107.13
2022-12-02T22:59:43.709Z,102100.94
2022-12-02T23:01:45.513Z,102094.06
2022-12-02T23:03:46.932Z,102095.03
2022-12-02T23:05:48.780Z,102094.84
2022-12-02T23:07:50.273Z,102100.16
2022-12-02T23:09:53.630Z,102093.19
2022-12-02T23:11:56.608Z,102092.19
2022-12-02T23:13:58.182Z,102090.28
2022-12-02T23:15:59.736Z,102092.88
2022-12-02T23:18:01.351Z,102091.34
2022-12-02T23:20:04.203Z,102084.25
2022-12-02T23:22:05.729Z,102093.06
2022-12-02T23:24:07.967Z,102084.44
2022-12-02T23:26:09.629Z,102072.19
2022-12-02T23:28:12.626Z,102088.75
2022-12-02T23:30:14.398Z,102092.19
2022-12-02T23:32:16.014Z,102082.50